sensor_id;sensor_type;location;lat;lon;timestamp;pressure;altitude;pressure_sealevel;temperature;humidity
56928;BME280;60850;52.502;13.426;2023-02-19T00:00:12;101012.22;;;7.24;100.00
56928;BME280;60850;52.502;13.426;2023-02-19T00:03:01;101021.97;;;7.22;100.00
56928;BME280;60850;52.502;13.426;2023-02-19T00:05:28;101018.47;;;7.19;100.00
56928;BME280;60850;52.502;13.426;2023-02-19T00:07:55;101017.59;;;7.18;100.00
56928;BME280;60850;52.502;13.426;2023-02-19T00:10:23;101023.78;;;7.17;100.00
56928;BME280;60850;52.502;13.426;2023-02-19T00:12:50;101022.94;;;7.15;100.00
56928;BME280;60850;52.502;13.426;2023-02-19T00:15:17;101020.25;;;7.16;100.00
56928;BME280;60850;52.502;13.426;2023-02-19T00:17:44;101021.09;;;7.22;100.00
56928;BME280;60850;52.502;13.426;2023-02-19T00:20:12;101017.56;;;7.21;100.00
56928;BME280;60850;52.502;13.426;2023-02-19T00:22:39;101016.69;;;7.21;100.00
56928;BME280;60850;52.502;13.426;2023-02-19T00:25:06;101016.72;;;7.19;100.00
56928;BME280;60850;52.502;13.426;2023-02-19T00:27:33;101022.91;;;7.16;100.00
56928;BME280;60850;52.502;13.426;2023-02-19T00:30:00;101014.94;;;7.20;100.00
56928;BME280;60850;52.502;13.426;2023-02-19T00:32:27;101006.06;;;7.22;100.00
56928;BME280;60850;52.502;13.426;2023-02-19T00:34:54;101005.16;;;7.25;100.00
56928;BME280;60850;52.502;13.426;2023-02-19T00:37:22;101000.75;;;7.27;100.00
56928;BME280;60850;52.502;13.426;2023-02-19T00:39:49;100995.44;;;7.24;100.00
56928;BME280;60850;52.502;13.426;2023-02-19T00:42:16;100990.13;;;7.27;100.00
56928;BME280;60850;52.502;13.426;2023-02-19T00:44:43;100984.78;;;7.30;100.00
56928;BME280;60850;52.502;13.426;2023-02-19T00:47:10;100989.19;;;7.34;100.00
56928;BME280;60850;52.502;13.426;2023-02-19T00:49:37;100995.34;;;7.33;100.00
56928;BME280;60850;52.502;13.426;2023-02-19T00:52:04;100984.75;;;7.33;100.00
56928;BME280;60850;52.502;13.426;2023-02-19T00:54:33;100998.91;;;7.33;100.00
56928;BME280;60850;52.502;13.426;2023-02-19T00:57:00;100990.94;;;7.35;100.00
56928;BME280;60850;52.502;13.426;2023-02-19T00:59:26;100990.06;;;7.34;100.00
56928;BME280;60850;52.502;13.426;2023-02-19T01:01:53;100982.13;;;7.31;100.00
56928;BME280;60850;52.502;13.426;2023-02-19T01:04:20;100976.84;;;7.28;100.00
56928;BME280;60850;52.502;13.426;2023-02-19T01:06:47;100986.59;;;7.28;100.00
56928;BME280;60850;52.502;13.426;2023-02-19T01:09:14;100969.78;;;7.27;100.00
56928;BME280;60850;52.502;13.426;2023-02-19T01:11:43;100969.75;;;7.30;100.00
56928;BME280;60850;52.502;13.426;2023-02-19T01:14:10;100972.41;;;7.30;100.00
56928;BME280;60850;52.502;13.426;2023-02-19T01:16:37;100971.53;;;7.30;100.00
56928;BME280;60850;52.502;13.426;2023-02-19T01:19:03;100968.91;;;7.27;100.00
56928;BME280;60850;52.502;13.426;2023-02-19T01:21:30;100971.56;;;7.27;100.00
56928;BME280;60850;52.502;13.426;2023-02-19T01:23:57;100967.16;;;7.27;100.00
56928;BME280;60850;52.502;13.426;2023-02-19T01:26:27;100951.22;;;7.29;100.00
56928;BME280;60850;52.502;13.426;2023-02-19T01:28:55;100938.88;;;7.26;100.00
56928;BME280;60850;52.502;13.426;2023-02-19T01:31:23;100937.09;;;7.27;100.00
56928;BME280;60850;52.502;13.426;2023-02-19T01:33:52;100930.91;;;7.28;100.00
56928;BME280;60850;52.502;13.426;2023-02-19T01:36:19;100909.72;;;7.26;100.00
56928;BME280;60850;52.502;13.426;2023-02-19T01:38:46;100918.56;;;7.24;100.00
56928;BME280;60850;52.502;13.426;2023-02-19T01:41:16;100927.44;;;7.20;100.00
56928;BME280;60850;52.502;13.426;2023-02-19T01:43:57;100926.63;;;7.11;100.00
56928;BME280;60850;52.502;13.426;2023-02-19T01:46:25;100931.06;;;7.09;100.00
56928;BME280;60850;52.502;13.426;2023-02-19T01:48:53;100921.41;;;7.05;100.00
56928;BME280;60850;52.502;13.426;2023-02-19T01:51:21;100926.72;;;7.02;100.00
56928;BME280;60850;52.502;13.426;2023-02-19T01:53:51;100923.19;;;7.00;100.00
56928;BME280;60850;52.502;13.426;2023-02-19T01:56:22;100917.91;;;7.00;100.00
56928;BME280;60850;52.502;13.426;2023-02-19T01:58:49;100913.47;;;7.01;100.00
56928;BME280;60850;52.502;13.426;2023-02-19T02:01:18;100909.06;;;7.01;100.00
56928;BME280;60850;52.502;13.426;2023-02-19T02:03:46;100902.91;;;6.99;100.00
56928;BME280;60850;52.502;13.426;2023-02-19T02:06:20;100898.47;;;6.97;100.00
56928;BME280;60850;52.502;13.426;2023-02-19T02:08:50;100892.31;;;6.95;100.00
56928;BME280;60850;52.502;13.426;2023-02-19T02:11:35;100896.78;;;6.91;100.00
56928;BME280;60850;52.502;13.426;2023-02-19T02:14:02;100892.38;;;6.92;100.00
56928;BME280;60850;52.502;13.426;2023-02-19T02:16:38;100886.19;;;6.88;100.00
56928;BME280;60850;52.502;13.426;2023-02-19T02:19:22;100895.03;;;6.87;100.00
56928;BME280;60850;52.502;13.426;2023-02-19T02:22:03;100892.38;;;6.88;100.00
56928;BME280;60850;52.502;13.426;2023-02-19T02:27:37;100903.91;;;6.84;100.00
56928;BME280;60850;52.502;13.426;2023-02-19T02:30:16;100900.44;;;6.75;100.00
56928;BME280;60850;52.502;13.426;2023-02-19T02:32:53;100906.69;;;6.68;100.00
56928;BME280;60850;52.502;13.426;2023-02-19T02:35:26;100901.41;;;6.66;100.00
56928;BME280;60850;52.502;13.426;2023-02-19T02:37:56;100899.59;;;6.68;100.00
56928;BME280;60850;52.502;13.426;2023-02-19T02:40:24;100892.50;;;6.73;100.00
56928;BME280;60850;52.502;13.426;2023-02-19T02:42:51;100886.28;;;6.76;100.00
56928;BME280;60850;52.502;13.426;2023-02-19T02:45:26;100889.84;;;6.78;100.00
56928;BME280;60850;52.502;13.426;2023-02-19T02:48:24;100887.16;;;6.76;100.00
56928;BME280;60850;52.502;13.426;2023-02-19T02:50:55;100896.03;;;6.75;100.00
56928;BME280;60850;52.502;13.426;2023-02-19T02:53:28;100897.03;;;6.64;100.00
56928;BME280;60850;52.502;13.426;2023-02-19T02:56:15;100894.38;;;6.60;100.00
56928;BME280;60850;52.502;13.426;2023-02-19T02:58:45;100897.03;;;6.59;100.00
56928;BME280;60850;52.502;13.426;2023-02-19T03:01:17;100893.50;;;6.58;100.00
56928;BME280;60850;52.502;13.426;2023-02-19T03:04:07;100901.47;;;6.57;100.00
56928;BME280;60850;52.502;13.426;2023-02-19T03:06:36;100897.06;;;6.54;100.00
56928;BME280;60850;52.502;13.426;2023-02-19T03:09:08;100898.84;;;6.54;100.00
56928;BME280;60850;52.502;13.426;2023-02-19T03:11:39;100900.63;;;6.53;100.00
56928;BME280;60850;52.502;13.426;2023-02-19T03:14:29;100916.53;;;6.50;100.00
56928;BME280;60850;52.502;13.426;2023-02-19T03:17:21;100907.75;;;6.45;100.00
56928;BME280;60850;52.502;13.426;2023-02-19T03:20:11;100910.41;;;6.41;100.00
56928;BME280;60850;52.502;13.426;2023-02-19T03:22:41;100913.16;;;6.30;100.00
56928;BME280;60850;52.502;13.426;2023-02-19T03:25:11;100925.59;;;6.10;100.00
56928;BME280;60850;52.502;13.426;2023-02-19T03:27:59;100923.03;;;5.96;100.00
56928;BME280;60850;52.502;13.426;2023-02-19T03:30:30;100930.13;;;5.92;100.00
56928;BME280;60850;52.502;13.426;2023-02-19T03:33:03;100926.63;;;5.70;100.00
56928;BME280;60850;52.502;13.426;2023-02-19T03:35:36;100920.47;;;5.73;100.00
56928;BME280;60850;52.502;13.426;2023-02-19T03:38:09;100919.56;;;5.75;100.00
56928;BME280;60850;52.502;13.426;2023-02-19T03:40:44;100922.19;;;5.80;100.00
56928;BME280;60850;52.502;13.426;2023-02-19T03:43:19;100932.78;;;5.74;100.00
56928;BME280;60850;52.502;13.426;2023-02-19T03:45:54;100925.84;;;5.45;100.00
56928;BME280;60850;52.502;13.426;2023-02-19T03:48:29;100939.06;;;5.35;100.00
56928;BME280;60850;52.502;13.426;2023-02-19T03:51:13;100927.63;;;5.31;100.00
56928;BME280;60850;52.502;13.426;2023-02-19T03:53:50;100936.47;;;5.18;100.00
56928;BME280;60850;52.502;13.426;2023-02-19T03:56:24;100940.00;;;5.11;100.00
56928;BME280;60850;52.502;13.426;2023-02-19T03:58:57;100935.59;;;5.04;100.00
56928;BME280;60850;52.502;13.426;2023-02-19T04:01:30;100936.47;;;5.09;100.00
56928;BME280;60850;52.502;13.426;2023-02-19T04:04:02;100938.22;;;5.05;100.00
56928;BME280;60850;52.502;13.426;2023-02-19T04:06:32;100938.22;;;5.07;100.00
56928;BME280;60850;52.502;13.426;2023-02-19T04:09:03;100946.16;;;5.11;100.00
56928;BME280;60850;52.502;13.426;2023-02-19T04:11:32;100944.38;;;5.12;100.00
56928;BME280;60850;52.502;13.426;2023-02-19T04:14:02;100947.91;;;5.17;100.00
56928;BME280;60850;52.502;13.426;2023-02-19T04:16:33;100947.91;;;5.18;100.00
56928;BME280;60850;52.502;13.426;2023-02-19T04:19:06;100952.31;;;5.22;100.00
56928;BME280;60850;52.502;13.426;2023-02-19T04:21:36;100951.44;;;5.23;100.00
56928;BME280;60850;52.502;13.426;2023-02-19T04:24:10;100954.94;;;5.26;100.00
56928;BME280;60850;52.502;13.426;2023-02-19T04:26:39;100962.03;;;5.16;100.00
56928;BME280;60850;52.502;13.426;2023-02-19T04:29:06;100965.53;;;4.95;100.00
56928;BME280;60850;52.502;13.426;2023-02-19T04:31:34;100969.97;;;5.01;100.00
56928;BME280;60850;52.502;13.426;2023-02-19T04:34:02;100964.66;;;4.96;100.00
56928;BME280;60850;52.502;13.426;2023-02-19T04:36:31;100967.31;;;4.96;100.00
56928;BME280;60850;52.502;13.426;2023-02-19T04:38:58;100968.19;;;4.74;100.00
56928;BME280;60850;52.502;13.426;2023-02-19T04:41:25;100983.16;;;4.75;100.00
56928;BME280;60850;52.502;13.426;2023-02-19T04:43:52;100980.50;;;4.75;100.00
56928;BME280;60850;52.502;13.426;2023-02-19T04:46:19;100979.63;;;4.77;100.00
56928;BME280;60850;52.502;13.426;2023-02-19T04:48:46;100979.63;;;4.76;100.00
56928;BME280;60850;52.502;13.426;2023-02-19T04:51:13;100976.97;;;4.68;100.00
56928;BME280;60850;52.502;13.426;2023-02-19T04:53:42;100984.91;;;4.66;100.00
56928;BME280;60850;52.502;13.426;2023-02-19T04:56:13;100995.44;;;4.63;100.00
56928;BME280;60850;52.502;13.426;2023-02-19T04:58:41;100999.81;;;4.55;100.00
56928;BME280;60850;52.502;13.426;2023-02-19T05:01:08;100991.03;;;4.55;100.00
56928;BME280;60850;52.502;13.426;2023-02-19T05:03:35;100994.56;;;4.60;100.00
56928;BME280;60850;52.502;13.426;2023-02-19T05:06:03;100997.19;;;4.61;100.00
56928;BME280;60850;52.502;13.426;2023-02-19T05:08:30;100997.22;;;4.69;100.00
56928;BME280;60850;52.502;13.426;2023-02-19T05:10:58;101006.91;;;4.70;100.00
56928;BME280;60850;52.502;13.426;2023-02-19T05:13:26;101002.47;;;4.72;100.00
56928;BME280;60850;52.502;13.426;2023-02-19T05:15:54;100998.09;;;4.71;100.00
56928;BME280;60850;52.502;13.426;2023-02-19T05:18:21;101000.72;;;4.71;100.00
56928;BME280;60850;52.502;13.426;2023-02-19T05:20:49;100991.03;;;4.64;100.00
56928;BME280;60850;52.502;13.426;2023-02-19T05:23:16;100998.97;;;4.70;100.00
56928;BME280;60850;52.502;13.426;2023-02-19T05:25:43;100987.53;;;4.69;100.00
56928;BME280;60850;52.502;13.426;2023-02-19T05:28:11;100979.59;;;4.60;100.00
56928;BME280;60850;52.502;13.426;2023-02-19T05:30:45;100994.56;;;4.60;100.00
56928;BME280;60850;52.502;13.426;2023-02-19T05:33:12;100994.56;;;4.54;100.00
56928;BME280;60850;52.502;13.426;2023-02-19T05:35:41;100993.66;;;4.58;100.00
56928;BME280;60850;52.502;13.426;2023-02-19T05:38:08;100998.97;;;4.64;100.00
56928;BME280;60850;52.502;13.426;2023-02-19T05:40:35;100992.81;;;4.66;100.00
56928;BME280;60850;52.502;13.426;2023-02-19T05:43:03;100993.69;;;4.70;100.00
56928;BME280;60850;52.502;13.426;2023-02-19T05:45:32;100996.34;;;4.73;100.00
56928;BME280;60850;52.502;13.426;2023-02-19T05:47:59;101004.28;;;4.73;100.00
56928;BME280;60850;52.502;13.426;2023-02-19T05:50:27;100993.69;;;4.78;100.00
56928;BME280;60850;52.502;13.426;2023-02-19T05:52:54;101007.81;;;4.83;100.00
56928;BME280;60850;52.502;13.426;2023-02-19T05:55:21;101008.69;;;4.89;100.00
56928;BME280;60850;52.502;13.426;2023-02-19T05:57:48;101008.69;;;4.91;100.00
56928;BME280;60850;52.502;13.426;2023-02-19T06:00:17;101019.28;;;5.02;100.00
56928;BME280;60850;52.502;13.426;2023-02-19T06:02:45;101015.72;;;4.90;100.00
56928;BME280;60850;52.502;13.426;2023-02-19T06:05:13;101011.34;;;4.86;100.00
56928;BME280;60850;52.502;13.426;2023-02-19T06:07:40;101012.22;;;4.82;100.00
56928;BME280;60850;52.502;13.426;2023-02-19T06:10:08;101006.91;;;4.82;100.00
56928;BME280;60850;52.502;13.426;2023-02-19T06:12:35;101006.94;;;4.79;100.00
56928;BME280;60850;52.502;13.426;2023-02-19T06:15:03;101012.22;;;4.82;100.00
56928;BME280;60850;52.502;13.426;2023-02-19T06:17:30;101012.22;;;4.81;100.00
56928;BME280;60850;52.502;13.426;2023-02-19T06:19:59;101005.16;;;4.83;100.00
56928;BME280;60850;52.502;13.426;2023-02-19T06:22:26;101000.75;;;4.82;100.00
56928;BME280;60850;52.502;13.426;2023-02-19T06:24:53;100996.34;;;4.82;100.00
56928;BME280;60850;52.502;13.426;2023-02-19T06:27:20;101011.34;;;4.86;100.00
56928;BME280;60850;52.502;13.426;2023-02-19T06:29:47;101019.25;;;4.92;100.00
56928;BME280;60850;52.502;13.426;2023-02-19T06:32:14;101012.22;;;4.94;100.00
56928;BME280;60850;52.502;13.426;2023-02-19T06:34:41;101027.19;;;4.95;100.00
56928;BME280;60850;52.502;13.426;2023-02-19T06:37:09;101046.56;;;4.99;100.00
56928;BME280;60850;52.502;13.426;2023-02-19T06:39:36;101039.53;;;5.03;100.00
56928;BME280;60850;52.502;13.426;2023-02-19T06:42:03;101050.97;;;5.05;100.00
56928;BME280;60850;52.502;13.426;2023-02-19T06:44:30;101054.50;;;5.13;100.00
56928;BME280;60850;52.502;13.426;2023-02-19T06:46:57;101066.84;;;5.17;100.00
56928;BME280;60850;52.502;13.426;2023-02-19T06:49:25;101067.72;;;5.20;100.00
56928;BME280;60850;52.502;13.426;2023-02-19T06:51:52;101070.38;;;5.23;100.00
56928;BME280;60850;52.502;13.426;2023-02-19T06:54:20;101081.81;;;5.26;100.00
56928;BME280;60850;52.502;13.426;2023-02-19T06:56:47;101080.06;;;5.28;100.00
56928;BME280;60850;52.502;13.426;2023-02-19T06:59:15;101082.72;;;5.29;100.00
56928;BME280;60850;52.502;13.426;2023-02-19T07:01:42;101092.41;;;5.33;100.00
56928;BME280;60850;52.502;13.426;2023-02-19T07:04:10;101094.19;;;5.30;100.00
56928;BME280;60850;52.502;13.426;2023-02-19T07:06:37;101098.59;;;5.37;100.00
56928;BME280;60850;52.502;13.426;2023-02-19T07:09:06;101100.34;;;5.45;100.00
56928;BME280;60850;52.502;13.426;2023-02-19T07:11:36;101096.81;;;5.56;100.00
56928;BME280;60850;52.502;13.426;2023-02-19T07:14:05;101106.50;;;5.66;100.00
56928;BME280;60850;52.502;13.426;2023-02-19T07:16:33;101097.66;;;5.76;100.00
56928;BME280;60850;52.502;13.426;2023-02-19T07:19:00;101107.38;;;5.83;100.00
56928;BME280;60850;52.502;13.426;2023-02-19T07:21:28;101106.47;;;5.89;100.00
56928;BME280;60850;52.502;13.426;2023-02-19T07:23:56;101109.16;;;5.96;100.00
56928;BME280;60850;52.502;13.426;2023-02-19T07:26:23;101099.41;;;6.06;100.00
56928;BME280;60850;52.502;13.426;2023-02-19T07:28:52;101110.84;;;6.25;100.00
56928;BME280;60850;52.502;13.426;2023-02-19T07:31:21;101121.41;;;6.34;100.00
56928;BME280;60850;52.502;13.426;2023-02-19T07:33:49;101122.28;;;6.44;100.00
56928;BME280;60850;52.502;13.426;2023-02-19T07:36:17;101123.13;;;6.50;100.00
56928;BME280;60850;52.502;13.426;2023-02-19T07:38:44;101122.22;;;6.57;100.00
56928;BME280;60850;52.502;13.426;2023-02-19T07:41:11;101140.72;;;6.62;100.00
56928;BME280;60850;52.502;13.426;2023-02-19T07:43:39;101132.78;;;6.67;100.00
56928;BME280;60850;52.502;13.426;2023-02-19T07:46:08;101140.66;;;6.76;100.00
56928;BME280;60850;52.502;13.426;2023-02-19T07:48:36;101143.28;;;6.82;100.00
56928;BME280;60850;52.502;13.426;2023-02-19T07:51:04;101147.63;;;6.97;100.00
56928;BME280;60850;52.502;13.426;2023-02-19T07:53:32;101151.97;;;7.14;100.00
56928;BME280;60850;52.502;13.426;2023-02-19T07:56:01;101157.13;;;7.37;100.00
56928;BME280;60850;52.502;13.426;2023-02-19T07:58:28;101159.56;;;7.66;100.00
56928;BME280;60850;52.502;13.426;2023-02-19T08:00:55;101162.09;;;7.83;100.00
56928;BME280;60850;52.502;13.426;2023-02-19T08:03:24;101173.25;;;8.17;100.00
56928;BME280;60850;52.502;13.426;2023-02-19T08:05:50;101181.06;;;8.40;100.00
56928;BME280;60850;52.502;13.426;2023-02-19T08:08:18;101186.31;;;8.43;100.00
56928;BME280;60850;52.502;13.426;2023-02-19T08:10:45;101183.34;;;8.72;100.00
56928;BME280;60850;52.502;13.426;2023-02-19T08:13:29;101196.78;;;9.29;100.00
56928;BME280;60850;52.502;13.426;2023-02-19T08:16:09;101197.84;;;9.76;100.00
56928;BME280;60850;52.502;13.426;2023-02-19T08:18:38;101203.94;;;9.84;100.00
56928;BME280;60850;52.502;13.426;2023-02-19T08:21:05;101209.59;;;10.18;100.00
56928;BME280;60850;52.502;13.426;2023-02-19T08:23:32;101205.06;;;10.73;100.00
56928;BME280;60850;52.502;13.426;2023-02-19T08:25:59;101221.28;;;11.06;99.81
56928;BME280;60850;52.502;13.426;2023-02-19T08:28:27;101226.97;;;11.31;98.39
56928;BME280;60850;52.502;13.426;2023-02-19T08:30:58;101239.72;;;11.58;96.57
56928;BME280;60850;52.502;13.426;2023-02-19T08:33:25;101233.00;;;11.79;94.69
56928;BME280;60850;52.502;13.426;2023-02-19T08:35:53;101241.28;;;11.28;93.47
56928;BME280;60850;52.502;13.426;2023-02-19T08:38:21;101247.06;;;12.24;91.62
56928;BME280;60850;52.502;13.426;2023-02-19T08:40:48;101242.22;;;13.36;84.07
56928;BME280;60850;52.502;13.426;2023-02-19T08:43:15;101247.91;;;12.93;81.82
56928;BME280;60850;52.502;13.426;2023-02-19T08:45:44;101257.22;;;13.71;75.83
56928;BME280;60850;52.502;13.426;2023-02-19T08:48:13;101249.53;;;14.93;65.43
56928;BME280;60850;52.502;13.426;2023-02-19T08:50:40;101255.13;;;16.04;58.33
56928;BME280;60850;52.502;13.426;2023-02-19T08:53:08;101255.66;;;16.97;52.87
56928;BME280;60850;52.502;13.426;2023-02-19T08:55:36;101271.09;;;16.93;52.71
56928;BME280;60850;52.502;13.426;2023-02-19T08:58:03;101274.25;;;17.42;50.09
56928;BME280;60850;52.502;13.426;2023-02-19T09:00:30;101269.84;;;17.21;49.33
56928;BME280;60850;52.502;13.426;2023-02-19T09:02:57;101281.03;;;17.51;48.56
56928;BME280;60850;52.502;13.426;2023-02-19T09:05:24;101289.59;;;16.16;51.38
56928;BME280;60850;52.502;13.426;2023-02-19T09:07:51;101291.03;;;16.03;57.12
56928;BME280;60850;52.502;13.426;2023-02-19T09:10:19;101305.31;;;14.04;58.77
56928;BME280;60850;52.502;13.426;2023-02-19T09:12:46;101304.22;;;12.88;66.83
56928;BME280;60850;52.502;13.426;2023-02-19T09:15:13;101303.97;;;11.92;86.08
56928;BME280;60850;52.502;13.426;2023-02-19T09:17:40;101297.53;;;11.61;86.77
56928;BME280;60850;52.502;13.426;2023-02-19T09:20:08;101308.28;;;11.13;90.42
56928;BME280;60850;52.502;13.426;2023-02-19T09:22:36;101324.09;;;10.79;94.55
56928;BME280;60850;52.502;13.426;2023-02-19T09:25:03;101322.78;;;11.01;95.64
56928;BME280;60850;52.502;13.426;2023-02-19T09:27:31;101318.25;;;11.05;94.90
56928;BME280;60850;52.502;13.426;2023-02-19T09:29:58;101322.22;;;10.82;94.88
56928;BME280;60850;52.502;13.426;2023-02-19T09:32:25;101319.75;;;10.73;94.08
56928;BME280;60850;52.502;13.426;2023-02-19T09:34:52;101328.75;;;10.66;98.52
56928;BME280;60850;52.502;13.426;2023-02-19T09:37:24;101330.69;;;10.58;97.33
56928;BME280;60850;52.502;13.426;2023-02-19T09:39:51;101343.75;;;10.16;97.17
56928;BME280;60850;52.502;13.426;2023-02-19T09:42:21;101330.94;;;9.79;99.60
56928;BME280;60850;52.502;13.426;2023-02-19T09:44:52;101326.28;;;9.30;98.56
56928;BME280;60850;52.502;13.426;2023-02-19T09:47:22;101334.31;;;9.26;100.00
56928;BME280;60850;52.502;13.426;2023-02-19T09:49:51;101340.38;;;9.35;100.00
56928;BME280;60850;52.502;13.426;2023-02-19T09:52:28;101349.28;;;9.34;100.00
56928;BME280;60850;52.502;13.426;2023-02-19T09:55:01;101347.59;;;9.26;100.00
56928;BME280;60850;52.502;13.426;2023-02-19T09:57:31;101348.19;;;9.52;100.00
56928;BME280;60850;52.502;13.426;2023-02-19T10:00:04;101347.13;;;9.64;100.00
56928;BME280;60850;52.502;13.426;2023-02-19T10:02:33;101362.09;;;9.74;100.00
56928;BME280;60850;52.502;13.426;2023-02-19T10:05:00;101365.56;;;9.79;100.00
56928;BME280;60850;52.502;13.426;2023-02-19T10:07:35;101368.53;;;9.56;100.00
56928;BME280;60850;52.502;13.426;2023-02-19T10:10:21;101365.16;;;9.41;100.00
56928;BME280;60850;52.502;13.426;2023-02-19T10:12:53;101362.22;;;9.63;100.00
56928;BME280;60850;52.502;13.426;2023-02-19T10:15:31;101366.56;;;9.71;100.00
56928;BME280;60850;52.502;13.426;2023-02-19T10:18:01;101379.47;;;10.03;100.00
56928;BME280;60850;52.502;13.426;2023-02-19T10:20:28;101389.38;;;9.91;96.85
56928;BME280;60850;52.502;13.426;2023-02-19T10:22:59;101392.13;;;9.87;97.57
56928;BME280;60850;52.502;13.426;2023-02-19T10:25:28;101398.13;;;10.00;96.92
56928;BME280;60850;52.502;13.426;2023-02-19T10:27:57;101403.28;;;10.15;96.34
56928;BME280;60850;52.502;13.426;2023-02-19T10:30:28;101402.47;;;10.07;93.05
56928;BME280;60850;52.502;13.426;2023-02-19T10:33:01;101410.50;;;10.05;97.17
56928;BME280;60850;52.502;13.426;2023-02-19T10:35:29;101412.25;;;10.08;94.86
56928;BME280;60850;52.502;13.426;2023-02-19T10:37:57;101405.94;;;10.15;94.98
56928;BME280;60850;52.502;13.426;2023-02-19T10:40:25;101416.09;;;9.84;94.98
56928;BME280;60850;52.502;13.426;2023-02-19T10:42:55;101420.69;;;9.71;97.46
56928;BME280;60850;52.502;13.426;2023-02-19T10:45:27;101428.88;;;9.56;98.41
56928;BME280;60850;52.502;13.426;2023-02-19T10:47:56;101432.56;;;9.41;94.74
56928;BME280;60850;52.502;13.426;2023-02-19T10:50:26;101434.38;;;9.39;99.73
56928;BME280;60850;52.502;13.426;2023-02-19T10:52:56;101436.91;;;9.50;98.62
56928;BME280;60850;52.502;13.426;2023-02-19T10:55:26;101437.56;;;9.73;93.89
56928;BME280;60850;52.502;13.426;2023-02-19T10:57:54;101434.63;;;9.93;93.37
56928;BME280;60850;52.502;13.426;2023-02-19T11:00:23;101442.34;;;10.13;90.89
56928;BME280;60850;52.502;13.426;2023-02-19T11:03:17;101445.03;;;10.13;89.44
56928;BME280;60850;52.502;13.426;2023-02-19T11:05:56;101442.34;;;10.16;88.08
56928;BME280;60850;52.502;13.426;2023-02-19T11:08:25;101455.66;;;10.16;87.64
56928;BME280;60850;52.502;13.426;2023-02-19T11:10:52;101455.56;;;10.21;85.59
56928;BME280;60850;52.502;13.426;2023-02-19T11:13:25;101458.09;;;10.34;87.87
56928;BME280;60850;52.502;13.426;2023-02-19T11:15:57;101458.16;;;10.31;82.46
56928;BME280;60850;52.502;13.426;2023-02-19T11:18:27;101469.75;;;10.26;82.58
56928;BME280;60850;52.502;13.426;2023-02-19T11:20:57;101468.72;;;10.37;83.90
56928;BME280;60850;52.502;13.426;2023-02-19T11:23:28;101478.31;;;10.49;83.88
56928;BME280;60850;52.502;13.426;2023-02-19T11:25:57;101488.97;;;10.51;78.63
56928;BME280;60850;52.502;13.426;2023-02-19T11:28:30;101480.38;;;10.30;75.63
56928;BME280;60850;52.502;13.426;2023-02-19T11:31:21;101482.97;;;10.36;77.99
56928;BME280;60850;52.502;13.426;2023-02-19T11:33:53;101493.78;;;10.24;78.67
56928;BME280;60850;52.502;13.426;2023-02-19T11:36:30;101487.66;;;10.13;79.06
56928;BME280;60850;52.502;13.426;2023-02-19T11:39:02;101481.97;;;9.68;75.65
56928;BME280;60850;52.502;13.426;2023-02-19T11:41:58;101493.81;;;9.36;77.83
56928;BME280;60850;52.502;13.426;2023-02-19T11:44:42;101493.72;;;9.47;79.57
56928;BME280;60850;52.502;13.426;2023-02-19T11:47:34;101514.28;;;9.31;80.87
56928;BME280;60850;52.502;13.426;2023-02-19T11:50:15;101508.28;;;9.10;84.13
56928;BME280;60850;52.502;13.426;2023-02-19T11:52:55;101497.81;;;8.88;85.25
56928;BME280;60850;52.502;13.426;2023-02-19T11:55:40;101495.28;;;8.65;85.00
56928;BME280;60850;52.502;13.426;2023-02-19T11:58:31;101489.25;;;8.39;86.84
56928;BME280;60850;52.502;13.426;2023-02-19T12:01:07;101502.59;;;8.22;87.31
56928;BME280;60850;52.502;13.426;2023-02-19T12:06:44;101509.81;;;7.85;87.65
56928;BME280;60850;52.502;13.426;2023-02-19T12:09:29;101508.09;;;7.68;89.87
56928;BME280;60850;52.502;13.426;2023-02-19T12:12:10;101516.94;;;7.58;88.86
56928;BME280;60850;52.502;13.426;2023-02-19T12:15:06;101516.97;;;7.57;89.29
56928;BME280;60850;52.502;13.426;2023-02-19T12:17:45;101523.16;;;7.54;87.42
56928;BME280;60850;52.502;13.426;2023-02-19T12:20:20;101528.41;;;7.68;88.12
56928;BME280;60850;52.502;13.426;2023-02-19T12:23:05;101516.91;;;7.77;86.88
56928;BME280;60850;52.502;13.426;2023-02-19T12:25:48;101510.66;;;7.97;85.28
56928;BME280;60850;52.502;13.426;2023-02-19T12:28:41;101522.09;;;8.19;82.88
56928;BME280;60850;52.502;13.426;2023-02-19T12:31:28;101514.06;;;8.24;82.75
56928;BME280;60850;52.502;13.426;2023-02-19T12:37:10;101530.06;;;8.18;77.29
56928;BME280;60850;52.502;13.426;2023-02-19T12:39:49;101541.56;;;8.14;78.28
56928;BME280;60850;52.502;13.426;2023-02-19T12:42:31;101540.72;;;8.01;79.58
56928;BME280;60850;52.502;13.426;2023-02-19T12:45:07;101544.28;;;7.95;79.88
56928;BME280;60850;52.502;13.426;2023-02-19T12:47:42;101551.38;;;7.96;80.64
56928;BME280;60850;52.502;13.426;2023-02-19T12:50:17;101553.16;;;7.91;80.65
56928;BME280;60850;52.502;13.426;2023-02-19T12:52:48;101543.44;;;7.83;83.27
56928;BME280;60850;52.502;13.426;2023-02-19T12:55:20;101547.91;;;7.62;84.96
56928;BME280;60850;52.502;13.426;2023-02-19T12:57:49;101552.34;;;7.54;86.30
56928;BME280;60850;52.502;13.426;2023-02-19T13:00:27;101552.34;;;7.36;86.40
56928;BME280;60850;52.502;13.426;2023-02-19T13:02:59;101553.22;;;7.24;88.95
56928;BME280;60850;52.502;13.426;2023-02-19T13:05:37;101551.47;;;7.20;89.41
56928;BME280;60850;52.502;13.426;2023-02-19T13:08:12;101556.75;;;7.08;90.98